createdAt,value
2024-04-06T00:00:11.122Z,1001.55
2024-04-06T00:01:11.089Z,1001.51
2024-04-06T00:02:11.069Z,1001.54
2024-04-06T00:03:11.061Z,1001.59
2024-04-06T00:04:11.104Z,1001.55
2024-04-06T00:05:11.079Z,1001.55
2024-04-06T00:06:11.060Z,1001.56
2024-04-06T00:07:11.033Z,1001.52
2024-04-06T00:08:16.725Z,1001.59
2024-04-06T00:09:11.995Z,1001.55
2024-04-06T00:10:10.996Z,1001.56
2024-04-06T00:11:11.067Z,1001.56
2024-04-06T00:12:11.306Z,1001.53
2024-04-06T00:13:10.954Z,1001.54
2024-04-06T00:14:10.943Z,1001.55
2024-04-06T00:15:10.938Z,1001.57
2024-04-06T00:16:10.977Z,1001.57
2024-04-06T00:17:10.950Z,1001.63
2024-04-06T00:18:10.940Z,1001.60
2024-04-06T00:19:10.894Z,1001.64
2024-04-06T00:20:10.988Z,1001.65
2024-04-06T00:21:10.899Z,1001.63
2024-04-06T00:22:10.855Z,1001.63
2024-04-06T00:23:11.028Z,1001.63
2024-04-06T00:24:10.839Z,1001.70
2024-04-06T00:25:10.830Z,1001.69
2024-04-06T00:26:11.139Z,1001.68
2024-04-06T00:27:10.813Z,1001.73
2024-04-06T00:28:10.803Z,1001.64
2024-04-06T00:29:10.826Z,1001.64
2024-04-06T00:30:10.799Z,1001.66
2024-04-06T00:31:10.756Z,1001.70
2024-04-06T00:32:10.761Z,1001.74
2024-04-06T00:33:10.750Z,1001.72
2024-04-06T00:34:10.726Z,1001.69
2024-04-06T00:35:10.800Z,1001.72
2024-04-06T00:36:10.998Z,1001.77
2024-04-06T00:37:10.741Z,1001.75
2024-04-06T00:38:10.776Z,1001.73
2024-04-06T00:39:10.676Z,1001.73
2024-04-06T00:40:10.668Z,1001.73
2024-04-06T00:41:10.684Z,1001.71
2024-04-06T00:42:10.671Z,1001.65
2024-04-06T00:43:10.654Z,1001.68
2024-04-06T00:44:10.634Z,1001.72
2024-04-06T00:45:10.685Z,1001.66
2024-04-06T00:46:10.603Z,1001.71
2024-04-06T00:47:10.610Z,1001.69
2024-04-06T00:48:10.892Z,1001.71
2024-04-06T00:49:10.579Z,1001.68
2024-04-06T00:50:10.577Z,1001.71
2024-04-06T00:51:10.554Z,1001.69
2024-04-06T00:52:10.542Z,1001.64
2024-04-06T00:53:10.626Z,1001.57
2024-04-06T00:54:10.566Z,1001.62
2024-04-06T00:55:10.509Z,1001.62
2024-04-06T00:56:10.498Z,1001.60
2024-04-06T00:57:10.562Z,1001.63
2024-04-06T00:58:10.475Z,1001.67
2024-04-06T00:59:10.496Z,1001.66
2024-04-06T01:00:10.459Z,1001.67
2024-04-06T01:01:10.528Z,1001.66
2024-04-06T01:02:10.434Z,1001.72
2024-04-06T01:03:10.452Z,1001.68
2024-04-06T01:04:10.417Z,1001.71
2024-04-06T01:05:10.426Z,1001.73
2024-04-06T01:06:10.471Z,1001.73
2024-04-06T01:07:10.482Z,1001.71
2024-04-06T01:08:10.385Z,1001.73
2024-04-06T01:09:10.404Z,1001.76
2024-04-06T01:10:10.346Z,1001.78
2024-04-06T01:11:10.393Z,1001.71
2024-04-06T01:12:10.322Z,1001.69
2024-04-06T01:13:10.414Z,1001.70
2024-04-06T01:14:10.303Z,1001.68
2024-04-06T01:15:10.301Z,1001.69
2024-04-06T01:16:10.288Z,1001.69
2024-04-06T01:17:10.303Z,1001.69
2024-04-06T01:18:10.501Z,1001.64
2024-04-06T01:19:10.386Z,1001.69
2024-04-06T01:20:10.267Z,1001.73
2024-04-06T01:21:10.242Z,1001.73
2024-04-06T01:22:10.226Z,1001.70
2024-04-06T01:23:10.240Z,1001.75
2024-04-06T01:24:10.488Z,1001.74
2024-04-06T01:25:10.207Z,1001.79
2024-04-06T01:26:10.177Z,1001.84
2024-04-06T01:27:10.172Z,1001.77
2024-04-06T01:28:10.160Z,1001.83
2024-04-06T01:29:10.167Z,1001.83
2024-04-06T01:30:10.269Z,1001.85
2024-04-06T01:31:10.127Z,1001.79
2024-04-06T01:32:10.122Z,1001.78
2024-04-06T01:33:10.150Z,1001.75
2024-04-06T01:34:10.095Z,1001.74
2024-04-06T01:35:10.346Z,1001.75
2024-04-06T01:36:10.082Z,1001.75
2024-04-06T01:37:10.062Z,1001.78
2024-04-06T01:38:10.051Z,1001.78
2024-04-06T01:39:10.055Z,1001.82
2024-04-06T01:40:10.055Z,1001.86
2024-04-06T01:41:10.257Z,1001.85
2024-04-06T01:42:10.010Z,1001.85
2024-04-06T01:43:10.022Z,1001.87
2024-04-06T01:44:09.989Z,1001.84
2024-04-06T01:45:09.994Z,1001.83
2024-04-06T01:46:09.967Z,1001.85
2024-04-06T01:47:10.236Z,1001.87
2024-04-06T01:48:09.946Z,1001.87
2024-04-06T01:49:10.085Z,1001.86
2024-04-06T01:50:09.925Z,1001.88
2024-04-06T01:51:09.923Z,1001.86
2024-04-06T01:52:09.924Z,1001.87
2024-04-06T01:53:09.957Z,1001.92
2024-04-06T01:54:09.926Z,1001.91
2024-04-06T01:55:10.190Z,1001.92
2024-04-06T01:56:09.880Z,1001.94
2024-04-06T01:57:09.859Z,1001.95
2024-04-06T01:58:10.008Z,1001.99
2024-04-06T01:59:09.829Z,1001.93
2024-04-06T02:00:09.928Z,1001.97
2024-04-06T02:01:09.808Z,1001.90
2024-04-06T02:02:09.804Z,1001.88
2024-04-06T02:03:10.029Z,1001.86
2024-04-06T02:04:09.789Z,1001.85
2024-04-06T02:05:09.794Z,1001.91
2024-04-06T02:06:09.941Z,1001.91
2024-04-06T02:07:09.745Z,1001.86
2024-04-06T02:08:09.740Z,1001.89
2024-04-06T02:09:10.050Z,1001.89
2024-04-06T02:10:09.729Z,1001.93
2024-04-06T02:11:09.704Z,1001.94
2024-04-06T02:12:09.694Z,1001.98
2024-04-06T02:13:09.685Z,1002.00
2024-04-06T02:14:09.672Z,1001.95
2024-04-06T02:15:09.951Z,1001.98
2024-04-06T02:16:09.667Z,1002.03
2024-04-06T02:17:09.646Z,1002.03
2024-04-06T02:18:09.634Z,1002.06
2024-04-06T02:19:09.653Z,1002.01
2024-04-06T02:20:09.897Z,1002.01
2024-04-06T02:21:09.654Z,1001.99
2024-04-06T02:22:09.597Z,1002.00
2024-04-06T02:23:09.583Z,1002.01
2024-04-06T02:24:09.577Z,1002.03
2024-04-06T02:25:09.601Z,1001.99
2024-04-06T02:26:09.836Z,1001.94
2024-04-06T02:27:09.568Z,1001.94
2024-04-06T02:28:09.525Z,1001.94
2024-04-06T02:29:09.515Z,1001.92
2024-04-06T02:30:09.668Z,1001.95
2024-04-06T02:31:09.500Z,1001.95
2024-04-06T02:32:09.507Z,1002.00
2024-04-06T02:33:09.538Z,1002.00
2024-04-06T02:34:09.465Z,1001.99
2024-04-06T02:35:09.462Z,1002.04
2024-04-06T02:36:09.481Z,1002.05
2024-04-06T02:37:09.496Z,1001.97
2024-04-06T02:38:09.421Z,1001.94
2024-04-06T02:39:09.476Z,1002.01
2024-04-06T02:40:09.412Z,1001.91
2024-04-06T02:41:09.388Z,1001.94
2024-04-06T02:42:09.398Z,1001.90
2024-04-06T02:43:09.397Z,1001.91
2024-04-06T02:44:09.357Z,1001.85
2024-04-06T02:45:09.387Z,1001.88
2024-04-06T02:46:09.336Z,1001.88
2024-04-06T02:47:09.401Z,1001.91
2024-04-06T02:48:09.312Z,1001.93
2024-04-06T02:49:09.305Z,1001.92
2024-04-06T02:50:09.311Z,1001.99
2024-04-06T02:51:09.314Z,1001.99
2024-04-06T02:52:09.272Z,1001.98
2024-04-06T02:53:09.600Z,1002.01
2024-04-06T02:54:09.254Z,1002.03
2024-04-06T02:55:09.257Z,1001.93
2024-04-06T02:56:09.241Z,1001.92
2024-04-06T02:57:09.252Z,1001.97
2024-04-06T02:58:09.231Z,1001.87
2024-04-06T02:59:09.191Z,1001.92
2024-04-06T03:00:09.476Z,1001.91
2024-04-06T03:01:09.207Z,1001.89
2024-04-06T03:02:09.169Z,1001.83
2024-04-06T03:03:09.168Z,1001.81
2024-04-06T03:04:09.419Z,1001.79
2024-04-06T03:05:09.226Z,1001.76
2024-04-06T03:06:09.126Z,1001.76
2024-04-06T03:07:09.141Z,1001.70
2024-04-06T03:08:09.103Z,1001.75
2024-04-06T03:09:09.140Z,1001.75
2024-04-06T03:10:09.084Z,1001.76
2024-04-06T03:11:09.133Z,1001.75
2024-04-06T03:12:09.072Z,1001.69
2024-04-06T03:13:09.050Z,1001.75
2024-04-06T03:14:09.040Z,1001.82
2024-04-06T03:15:09.067Z,1001.82
2024-04-06T03:16:09.026Z,1001.82
2024-04-06T03:17:09.308Z,1001.88
2024-04-06T03:18:08.998Z,1001.84
2024-04-06T03:19:08.984Z,1001.84
2024-04-06T03:20:09.024Z,1001.82
2024-04-06T03:21:09.004Z,1001.83
2024-04-06T03:22:08.956Z,1001.75
2024-04-06T03:23:08.962Z,1001.77
2024-04-06T03:24:08.938Z,1001.74
2024-04-06T03:25:08.931Z,1001.67
2024-04-06T03:26:08.965Z,1001.73
2024-04-06T03:27:08.905Z,1001.72
2024-04-06T03:28:08.906Z,1001.70
2024-04-06T03:29:08.878Z,1001.70
2024-04-06T03:30:08.875Z,1001.74
2024-04-06T03:31:08.883Z,1001.74
2024-04-06T03:32:08.876Z,1001.72
2024-04-06T03:33:08.842Z,1001.68
2024-04-06T03:34:10.472Z,1001.71
2024-04-06T03:35:08.826Z,1001.77
2024-04-06T03:36:08.816Z,1001.78
2024-04-06T03:37:08.802Z,1001.79
2024-04-06T03:38:08.857Z,1001.80
2024-04-06T03:39:08.811Z,1001.77
2024-04-06T03:40:08.763Z,1001.74
2024-04-06T03:41:08.792Z,1001.82
2024-04-06T03:42:08.760Z,1001.84
2024-04-06T03:43:08.745Z,1001.81
2024-04-06T03:44:08.754Z,1001.79
2024-04-06T03:45:08.821Z,1001.76
2024-04-06T03:46:08.726Z,1001.77
2024-04-06T03:47:08.695Z,1001.73
2024-04-06T03:48:08.864Z,1001.74
2024-04-06T03:49:08.671Z,1001.68
2024-04-06T03:50:08.693Z,1001.62
2024-04-06T03:51:08.657Z,1001.61
2024-04-06T03:52:08.647Z,1001.57
2024-04-06T03:53:08.636Z,1001.49
2024-04-06T03:54:08.658Z,1001.50
2024-04-06T03:55:08.625Z,1001.47
2024-04-06T03:56:08.633Z,1001.44
2024-04-06T03:57:08.586Z,1001.45
2024-04-06T03:58:08.585Z,1001.50
2024-04-06T03:59:08.591Z,1001.52
2024-04-06T04:00:08.566Z,1001.53
2024-04-06T04:01:08.546Z,1001.53
2024-04-06T04:02:08.547Z,1001.55
2024-04-06T04:03:08.531Z,1001.59
2024-04-06T04:04:08.533Z,1001.57
2024-04-06T04:05:08.776Z,1001.53
2024-04-06T04:06:08.524Z,1001.53
2024-04-06T04:07:08.478Z,1001.51
2024-04-06T04:08:08.506Z,1001.52
2024-04-06T04:09:08.461Z,1001.46
2024-04-06T04:10:08.450Z,1001.47
2024-04-06T04:11:08.473Z,1001.51
2024-04-06T04:12:08.431Z,1001.50
2024-04-06T04:13:08.423Z,1001.51
2024-04-06T04:14:08.472Z,1001.52
2024-04-06T04:15:08.432Z,1001.49
2024-04-06T04:16:08.401Z,1001.46
2024-04-06T04:17:08.395Z,1001.43
2024-04-06T04:18:08.368Z,1001.44
2024-04-06T04:19:08.382Z,1001.39
2024-04-06T04:20:08.379Z,1001.48
2024-04-06T04:21:08.332Z,1001.49
2024-04-06T04:22:08.422Z,1001.50
2024-04-06T04:23:08.416Z,1001.50
2024-04-06T04:24:08.302Z,1001.52
2024-04-06T04:25:08.299Z,1001.48
2024-04-06T04:26:08.309Z,1001.50
2024-04-06T04:27:08.293Z,1001.47
2024-04-06T04:28:08.314Z,1001.51
2024-04-06T04:29:08.262Z,1001.50
2024-04-06T04:30:08.249Z,1001.53
2024-04-06T04:31:08.231Z,1001.54
2024-04-06T04:32:08.244Z,1001.55
2024-04-06T04:33:08.234Z,1001.57
2024-04-06T04:34:08.232Z,1001.58
2024-04-06T04:35:08.202Z,1001.59
2024-04-06T04:36:08.223Z,1001.63
2024-04-06T04:37:08.171Z,1001.65
2024-04-06T04:38:08.193Z,1001.65
2024-04-06T04:39:08.148Z,1001.69
2024-04-06T04:40:08.168Z,1001.70
2024-04-06T04:41:08.124Z,1001.73
2024-04-06T04:42:08.130Z,1001.76
2024-04-06T04:43:08.106Z,1001.79
2024-04-06T04:44:24.731Z,1001.76
2024-04-06T04:45:09.219Z,1001.74
2024-04-06T04:46:08.081Z,1001.75
2024-04-06T04:47:08.304Z,1001.73
2024-04-06T04:48:08.065Z,1001.70
2024-04-06T04:49:08.112Z,1001.76
2024-04-06T04:50:08.131Z,1001.77
2024-04-06T04:51:08.026Z,1001.77
2024-04-06T04:52:08.164Z,1001.78
2024-04-06T04:53:08.037Z,1001.76
2024-04-06T04:54:07.994Z,1001.78
2024-04-06T04:55:08.258Z,1001.77
2024-04-06T04:56:07.994Z,1001.74
2024-04-06T04:57:08.498Z,1001.79
2024-04-06T04:58:08.121Z,1001.77
2024-04-06T04:59:07.939Z,1001.78
2024-04-06T05:00:07.928Z,1001.84
2024-04-06T05:01:07.947Z,1001.87
2024-04-06T05:02:07.936Z,1001.88
2024-04-06T05:03:07.903Z,1001.88
2024-04-06T05:04:08.190Z,1001.92
2024-04-06T05:05:07.887Z,1001.85
2024-04-06T05:06:07.866Z,1001.81
2024-04-06T05:07:07.881Z,1001.85
2024-04-06T05:08:07.846Z,1001.84
2024-04-06T05:09:07.983Z,1001.88
2024-04-06T05:10:07.823Z,1001.82
2024-04-06T05:11:07.819Z,1001.87
2024-04-06T05:12:07.803Z,1001.87
2024-04-06T05:13:07.844Z,1001.85
2024-04-06T05:14:07.815Z,1001.87
2024-04-06T05:15:08.035Z,1001.91
2024-04-06T05:16:07.781Z,1001.98
2024-04-06T05:17:07.748Z,1001.97
2024-04-06T05:18:07.865Z,1001.94
2024-04-06T05:19:07.755Z,1001.95
2024-04-06T05:20:07.730Z,1002.01
2024-04-06T05:21:07.703Z,1001.94
2024-04-06T05:22:07.839Z,1002.01
2024-04-06T05:23:07.684Z,1001.96
2024-04-06T05:24:07.672Z,1001.94
2024-04-06T05:25:07.743Z,1001.97
2024-04-06T05:26:07.689Z,1002.00
2024-04-06T05:27:07.644Z,1001.96
2024-04-06T05:28:07.911Z,1002.09
2024-04-06T05:29:07.619Z,1002.08
2024-04-06T05:30:07.613Z,1002.06
2024-04-06T05:31:07.643Z,1002.09
2024-04-06T05:32:07.592Z,1002.12
2024-04-06T05:33:07.580Z,1002.08
2024-04-06T05:34:07.608Z,1002.06
2024-04-06T05:35:07.635Z,1002.10
2024-04-06T05:36:07.566Z,1002.09
2024-04-06T05:37:07.625Z,1002.06
2024-04-06T05:38:07.534Z,1002.14
2024-04-06T05:39:07.544Z,1002.13
2024-04-06T05:40:07.666Z,1002.18
2024-04-06T05:41:07.494Z,1002.22
2024-04-06T05:42:07.641Z,1002.22
2024-04-06T05:43:07.493Z,1002.17
2024-04-06T05:44:07.710Z,1002.29
2024-04-06T05:45:07.466Z,1002.29
2024-04-06T05:46:07.484Z,1002.29
2024-04-06T05:47:07.585Z,1002.30
2024-04-06T05:48:07.616Z,1002.31
2024-04-06T05:49:07.457Z,1002.37
2024-04-06T05:50:07.405Z,1002.35
2024-04-06T05:51:07.428Z,1002.37
2024-04-06T05:52:07.391Z,1002.34
2024-04-06T05:53:07.371Z,1002.36
2024-04-06T05:54:07.363Z,1002.36
2024-04-06T05:55:07.515Z,1002.39
2024-04-06T05:56:07.359Z,1002.39
2024-04-06T05:57:07.327Z,1002.38
2024-04-06T05:58:07.333Z,1002.35
2024-04-06T05:59:07.554Z,1002.36
2024-04-06T06:00:07.306Z,1002.37
2024-04-06T06:01:07.310Z,1002.36
2024-04-06T06:02:07.427Z,1002.37
2024-04-06T06:03:07.316Z,1002.31
2024-04-06T06:04:07.531Z,1002.28
2024-04-06T06:05:08.165Z,1002.27
2024-04-06T06:06:07.293Z,1002.22
2024-04-06T06:07:07.221Z,1002.20
2024-04-06T06:08:07.349Z,1002.22
2024-04-06T06:09:07.209Z,1002.18
2024-04-06T06:10:07.198Z,1002.18
2024-04-06T06:11:07.225Z,1002.19
2024-04-06T06:12:07.220Z,1002.13
2024-04-06T06:13:07.171Z,1002.13
2024-04-06T06:14:07.174Z,1002.12
2024-04-06T06:15:07.140Z,1002.09
2024-04-06T06:16:07.151Z,1002.08
2024-04-06T06:17:07.118Z,1002.09
2024-04-06T06:18:07.143Z,1002.07
2024-04-06T06:19:07.100Z,1002.08
2024-04-06T06:20:07.096Z,1002.00
2024-04-06T06:21:07.082Z,1002.06
2024-04-06T06:22:07.093Z,1002.05
2024-04-06T06:23:07.056Z,1002.02
2024-04-06T06:24:07.063Z,1002.01
2024-04-06T06:25:07.060Z,1002.00
2024-04-06T06:26:07.025Z,1001.96
2024-04-06T06:27:07.032Z,1001.99
2024-04-06T06:28:07.028Z,1001.93
2024-04-06T06:29:07.024Z,1001.84
2024-04-06T06:30:07.011Z,1001.85
2024-04-06T06:31:06.961Z,1001.82
2024-04-06T06:32:06.970Z,1001.81
2024-04-06T06:33:07.008Z,1001.81
2024-04-06T06:34:06.958Z,1001.79
2024-04-06T06:35:06.919Z,1001.76
2024-04-06T06:38:06.933Z,1001.81
2024-04-06T06:41:06.860Z,1001.74
2024-04-06T06:42:06.849Z,1001.78
2024-04-06T06:43:06.873Z,1001.73
2024-04-06T06:44:07.058Z,1001.70
2024-04-06T06:45:06.835Z,1001.71
2024-04-06T06:46:06.809Z,1001.70
2024-04-06T06:47:06.808Z,1001.69
2024-04-06T06:48:06.791Z,1001.70
2024-04-06T06:49:06.806Z,1001.68
2024-04-06T06:50:06.790Z,1001.63
2024-04-06T06:51:06.773Z,1001.65
2024-04-06T06:52:06.766Z,1001.64
2024-04-06T06:53:06.962Z,1001.64
2024-04-06T06:54:06.740Z,1001.58
2024-04-06T06:55:06.998Z,1001.55
2024-04-06T06:56:07.347Z,1001.55
2024-04-06T06:57:06.709Z,1001.53
2024-04-06T06:58:06.688Z,1001.56
2024-04-06T06:59:06.664Z,1001.55
2024-04-06T07:01:06.670Z,1001.59
2024-04-06T07:02:06.716Z,1001.60
2024-04-06T07:03:06.651Z,1001.69
2024-04-06T07:04:06.652Z,1001.62
2024-04-06T07:05:06.603Z,1001.62
2024-04-06T07:06:06.602Z,1001.63
2024-04-06T07:07:08.510Z,1001.64
2024-04-06T07:08:06.587Z,1001.63
2024-04-06T07:09:06.551Z,1001.63
2024-04-06T07:10:08.666Z,1001.61
2024-04-06T07:11:06.539Z,1001.64
2024-04-06T07:12:06.537Z,1001.60
2024-04-06T07:13:06.561Z,1001.61
2024-04-06T07:14:06.568Z,1001.58
2024-04-06T07:15:06.499Z,1001.55
2024-04-06T07:16:06.496Z,1001.55
2024-04-06T07:17:06.477Z,1001.55
2024-04-06T07:18:06.462Z,1001.52
2024-04-06T07:19:06.530Z,1001.48
2024-04-06T07:20:06.475Z,1001.43
2024-04-06T07:21:06.447Z,1001.47
2024-04-06T07:22:06.476Z,1001.44
2024-04-06T07:23:06.427Z,1001.51
2024-04-06T07:24:06.428Z,1001.55
2024-04-06T07:25:06.422Z,1001.54
2024-04-06T07:26:06.410Z,1001.61
2024-04-06T07:27:06.415Z,1001.66
2024-04-06T07:28:06.404Z,1001.67
2024-04-06T07:29:06.383Z,1001.68
2024-04-06T07:30:06.347Z,1001.66
2024-04-06T07:31:06.351Z,1001.72
2024-04-06T07:32:06.354Z,1001.73
2024-04-06T07:33:06.306Z,1001.63
2024-04-06T07:34:06.345Z,1001.62
2024-04-06T07:35:06.330Z,1001.63
2024-04-06T07:36:06.279Z,1001.56
2024-04-06T07:37:06.322Z,1001.57
2024-04-06T07:38:06.310Z,1001.53
2024-04-06T07:40:06.459Z,1001.47
2024-04-06T07:41:06.218Z,1001.46
2024-04-06T07:42:06.208Z,1001.56
2024-04-06T07:43:06.368Z,1001.66
2024-04-06T07:44:06.209Z,1001.63
2024-04-06T07:45:06.196Z,1001.66
2024-04-06T07:46:06.368Z,1001.63
2024-04-06T07:47:06.193Z,1001.62
2024-04-06T07:48:06.151Z,1001.63
2024-04-06T07:49:06.164Z,1001.62
2024-04-06T07:50:06.152Z,1001.58
2024-04-06T07:51:06.137Z,1001.60
2024-04-06T07:52:06.207Z,1001.53
2024-04-06T07:53:06.101Z,1001.50
2024-04-06T07:54:06.126Z,1001.45
2024-04-06T07:55:06.095Z,1001.40
2024-04-06T07:56:06.076Z,1001.37
2024-04-06T07:57:06.109Z,1001.44
2024-04-06T07:58:06.073Z,1001.44
2024-04-06T07:59:06.053Z,1001.42
2024-04-06T08:00:06.059Z,1001.41
2024-04-06T08:01:06.031Z,1001.38
2024-04-06T08:02:06.001Z,1001.37
2024-04-06T08:03:07.488Z,1001.36
2024-04-06T08:04:06.040Z,1001.40
2024-04-06T08:05:05.971Z,1001.35
2024-04-06T08:06:06.000Z,1001.41
2024-04-06T08:07:06.724Z,1001.40
2024-04-06T08:08:05.933Z,1001.41
2024-04-06T08:09:05.945Z,1001.43
2024-04-06T08:10:05.969Z,1001.40
2024-04-06T08:11:05.914Z,1001.39
2024-04-06T08:12:06.132Z,1001.42
2024-04-06T08:13:05.910Z,1001.42
2024-04-06T08:14:13.686Z,1001.40
2024-04-06T08:15:07.088Z,1001.39
2024-04-06T08:16:05.906Z,1001.38
2024-04-06T08:17:05.859Z,1001.33
2024-04-06T08:18:05.838Z,1001.38
2024-04-06T08:19:05.869Z,1001.36
2024-04-06T08:20:05.822Z,1001.30
2024-04-06T08:21:06.020Z,1001.27
2024-04-06T08:22:05.837Z,1001.28
2024-04-06T08:23:05.825Z,1001.22
2024-04-06T08:24:05.793Z,1001.23
2024-04-06T08:25:05.778Z,1001.25
2024-04-06T08:26:05.768Z,1001.32
2024-04-06T08:27:05.787Z,1001.27
2024-04-06T08:28:05.732Z,1001.35
2024-04-06T08:29:05.736Z,1001.36
2024-04-06T08:30:05.751Z,1001.28
2024-04-06T08:31:05.699Z,1001.28
2024-04-06T08:32:05.703Z,1001.25
2024-04-06T08:33:07.213Z,1001.23
2024-04-06T08:34:05.824Z,1001.28
2024-04-06T08:35:05.657Z,1001.26
2024-04-06T08:36:05.703Z,1001.28
2024-04-06T08:37:05.626Z,1001.28
2024-04-06T08:38:05.716Z,1001.27
2024-04-06T08:39:05.608Z,1001.26
2024-04-06T08:40:05.690Z,1001.27
2024-04-06T08:41:05.609Z,1001.25
2024-04-06T08:42:05.619Z,1001.27
2024-04-06T08:43:05.796Z,1001.25
2024-04-06T08:44:05.558Z,1001.30
2024-04-06T08:45:05.554Z,1001.29
2024-04-06T08:46:05.768Z,1001.29
2024-04-06T08:47:05.521Z,1001.33
2024-04-06T08:48:05.558Z,1001.40
2024-04-06T08:49:05.505Z,1001.37
2024-04-06T08:50:05.491Z,1001.35
2024-04-06T08:51:05.478Z,1001.35
2024-04-06T08:52:05.472Z,1001.42
2024-04-06T08:53:05.462Z,1001.35
2024-04-06T08:54:05.504Z,1001.34
2024-04-06T08:55:05.494Z,1001.35
2024-04-06T08:56:05.426Z,1001.37
2024-04-06T08:57:05.416Z,1001.33
2024-04-06T08:58:05.410Z,1001.35
2024-04-06T08:59:05.442Z,1001.36
2024-04-06T09:00:05.387Z,1001.41
2024-04-06T09:01:05.382Z,1001.28
2024-04-06T09:02:05.609Z,1001.38
2024-04-06T09:03:05.370Z,1001.33
2024-04-06T09:04:05.350Z,1001.35
2024-04-06T09:05:05.388Z,1001.32
2024-04-06T09:06:05.368Z,1001.34
2024-04-06T09:07:05.534Z,1001.29
2024-04-06T09:08:05.296Z,1001.31
2024-04-06T09:09:05.356Z,1001.25
2024-04-06T09:10:05.331Z,1001.30
2024-04-06T09:11:05.260Z,1001.31
2024-04-06T09:12:05.257Z,1001.34
2024-04-06T09:13:05.238Z,1001.32
2024-04-06T09:14:05.284Z,1001.26
2024-04-06T09:15:05.216Z,1001.30
2024-04-06T09:16:05.223Z,1001.30
2024-04-06T09:17:05.193Z,1001.24
2024-04-06T09:18:05.193Z,1001.25
2024-04-06T09:19:05.177Z,1001.25
2024-04-06T09:20:07.018Z,1001.22
2024-04-06T09:21:05.163Z,1001.19
2024-04-06T09:22:05.175Z,1001.21
2024-04-06T09:23:05.177Z,1001.17
2024-04-06T09:24:05.127Z,1001.14
2024-04-06T09:25:05.116Z,1001.14
2024-04-06T09:26:05.136Z,1001.13
2024-04-06T09:27:05.090Z,1001.07
2024-04-06T09:28:05.081Z,1001.08
2024-04-06T09:29:19.250Z,1001.04
2024-04-06T09:32:23.091Z,1001.09
2024-04-06T09:33:20.863Z,1001.02
2024-04-06T09:34:21.162Z,1000.97
2024-04-06T09:35:20.964Z,1000.91
2024-04-06T09:36:20.837Z,1000.89
2024-04-06T09:37:20.867Z,1000.88
2024-04-06T09:38:23.867Z,1000.86
2024-04-06T09:39:20.792Z,1000.85
2024-04-06T09:40:21.178Z,1000.87
2024-04-06T09:41:20.771Z,1000.80
2024-04-06T09:42:20.787Z,1000.74
2024-04-06T09:43:20.766Z,1000.78
2024-04-06T09:44:23.048Z,1000.80
2024-04-06T09:45:20.895Z,1000.74
2024-04-06T09:46:20.718Z,1000.73
2024-04-06T09:47:20.768Z,1000.76
2024-04-06T09:48:20.734Z,1000.75
2024-04-06T09:49:20.757Z,1000.73
2024-04-06T09:50:22.581Z,1000.71
2024-04-06T09:51:20.671Z,1000.59
2024-04-06T09:52:20.778Z,1000.66
2024-04-06T09:53:20.647Z,1000.68
2024-04-06T09:54:20.636Z,1000.73
2024-04-06T09:55:20.681Z,1000.73
2024-04-06T09:56:23.282Z,1000.70
2024-04-06T09:57:21.596Z,1000.66
2024-04-06T09:58:20.635Z,1000.60
2024-04-06T09:59:20.580Z,1000.59
2024-04-06T10:00:20.928Z,1000.64
2024-04-06T10:01:20.626Z,1000.57
2024-04-06T10:02:23.287Z,1000.56
2024-04-06T10:03:20.541Z,1000.61
2024-04-06T10:04:20.536Z,1000.66
2024-04-06T10:05:20.598Z,1000.61
2024-04-06T10:06:20.575Z,1000.64
2024-04-06T10:07:20.559Z,1000.65
2024-04-06T10:08:22.676Z,1000.63
2024-04-06T10:09:20.489Z,1000.59
2024-04-06T10:10:20.476Z,1000.55
2024-04-06T10:11:20.632Z,1000.56
2024-04-06T10:12:20.469Z,1000.50
2024-04-06T10:13:20.477Z,1000.56
2024-04-06T10:14:20.417Z,1000.49
2024-04-06T10:15:20.541Z,1000.50
2024-04-06T10:16:20.456Z,1000.48
2024-04-06T10:17:20.385Z,1000.48
2024-04-06T10:18:20.388Z,1000.49
2024-04-06T10:19:20.433Z,1000.46
2024-04-06T10:20:20.380Z,1000.44
2024-04-06T10:21:20.368Z,1000.42
2024-04-06T10:22:20.358Z,1000.37
2024-04-06T10:23:20.366Z,1000.30
2024-04-06T10:24:20.322Z,1000.31
2024-04-06T10:25:20.481Z,1000.34
2024-04-06T10:26:20.381Z,1000.24
2024-04-06T10:27:20.352Z,1000.22
2024-04-06T10:28:20.297Z,1000.23
2024-04-06T10:29:20.256Z,1000.22
2024-04-06T10:30:20.254Z,1000.21
2024-04-06T10:31:26.376Z,1000.15
2024-04-06T10:32:21.226Z,1000.14
2024-04-06T10:33:20.278Z,1000.10
2024-04-06T10:34:20.280Z,1000.16
2024-04-06T10:35:20.208Z,1000.10
2024-04-06T10:36:20.222Z,1000.06
2024-04-06T10:37:20.267Z,1000.05
2024-04-06T10:38:20.166Z,999.99
2024-04-06T10:39:20.478Z,1000.00
2024-04-06T10:40:20.442Z,999.98
2024-04-06T10:41:20.333Z,999.98
2024-04-06T10:42:20.120Z,999.95
2024-04-06T10:43:20.237Z,999.94
2024-04-06T10:44:20.318Z,999.98
2024-04-06T10:45:20.097Z,999.99
2024-04-06T10:46:20.146Z,999.97
2024-04-06T10:47:20.085Z,999.98
2024-04-06T10:48:20.214Z,1000.00
2024-04-06T10:49:20.287Z,999.93
2024-04-06T10:50:20.030Z,999.91
2024-04-06T10:51:20.041Z,999.91
2024-04-06T10:52:20.077Z,999.93
2024-04-06T10:53:20.126Z,999.89
2024-04-06T10:54:19.995Z,999.91
2024-04-06T10:55:20.179Z,999.90
2024-04-06T10:56:19.971Z,999.90
2024-04-06T10:57:19.959Z,999.85
2024-04-06T10:58:19.977Z,999.84
2024-04-06T10:59:19.954Z,999.87
2024-04-06T11:00:19.927Z,999.84
2024-04-06T11:01:20.195Z,999.85
2024-04-06T11:02:19.933Z,999.86
2024-04-06T11:03:19.911Z,999.72
2024-04-06T11:04:19.953Z,999.77
2024-04-06T11:05:19.885Z,999.78
2024-04-06T11:06:19.863Z,999.75
2024-04-06T11:07:19.903Z,999.74
2024-04-06T11:08:19.864Z,999.79
2024-04-06T11:09:19.836Z,999.75
2024-04-06T11:10:19.875Z,999.80
2024-04-06T11:11:19.819Z,999.74
2024-04-06T11:12:19.817Z,999.73
2024-04-06T11:13:19.827Z,999.76
2024-04-06T11:14:19.807Z,999.68
2024-04-06T11:15:19.776Z,999.63
2024-04-06T11:16:19.801Z,999.61
2024-04-06T11:17:19.783Z,999.59
2024-04-06T11:18:19.876Z,999.57
2024-04-06T11:19:19.790Z,999.55
2024-04-06T11:20:19.751Z,999.55
2024-04-06T11:21:19.705Z,999.55
2024-04-06T11:22:19.771Z,999.49
2024-04-06T11:23:19.677Z,999.59
2024-04-06T11:24:20.006Z,999.50
2024-04-06T11:25:19.720Z,999.45
2024-04-06T11:26:19.688Z,999.45
2024-04-06T11:27:19.679Z,999.43
2024-04-06T11:28:19.635Z,999.46
2024-04-06T11:29:19.617Z,999.30
2024-04-06T11:30:19.613Z,999.33
2024-04-06T11:31:19.646Z,999.27
2024-04-06T11:32:19.658Z,999.30
2024-04-06T11:33:19.573Z,999.37
2024-04-06T11:34:19.594Z,999.36
2024-04-06T11:35:19.599Z,999.29
2024-04-06T11:36:19.549Z,999.27
2024-04-06T11:37:19.617Z,999.33
2024-04-06T11:38:19.619Z,999.36
2024-04-06T11:39:19.508Z,999.32
2024-04-06T11:40:19.538Z,999.32
2024-04-06T11:41:19.488Z,999.32
2024-04-06T11:42:19.626Z,999.34
2024-04-06T11:43:19.531Z,999.39
2024-04-06T11:44:19.477Z,999.40
2024-04-06T11:45:19.447Z,999.40
2024-04-06T11:46:19.488Z,999.34
2024-04-06T11:47:19.433Z,999.28
2024-04-06T11:48:19.482Z,999.24
2024-04-06T11:49:19.435Z,999.20
2024-04-06T11:50:19.434Z,999.23
2024-04-06T11:51:19.380Z,999.20
2024-04-06T11:52:19.399Z,999.19
2024-04-06T11:53:19.367Z,999.16
2024-04-06T11:54:19.395Z,999.18
2024-04-06T11:55:19.366Z,999.22
2024-04-06T11:56:19.366Z,999.21
2024-04-06T11:57:19.322Z,999.27
2024-04-06T11:58:19.362Z,999.16
2024-04-06T11:59:19.301Z,999.13
2024-04-06T12:00:21.833Z,999.16
2024-04-06T12:01:19.313Z,999.08
2024-04-06T12:02:19.330Z,999.15
2024-04-06T12:03:19.264Z,999.08
2024-04-06T12:04:19.274Z,999.18
2024-04-06T12:05:19.460Z,999.12
2024-04-06T12:06:19.435Z,999.12
2024-04-06T12:07:19.263Z,999.22
2024-04-06T12:08:19.227Z,999.16
2024-04-06T12:09:19.224Z,999.17
2024-04-06T12:10:19.335Z,999.09
2024-04-06T12:11:19.201Z,999.22
2024-04-06T12:12:19.418Z,999.15
2024-04-06T12:13:19.182Z,999.14
2024-04-06T12:14:19.204Z,999.15
2024-04-06T12:15:19.139Z,999.10
2024-04-06T12:16:19.157Z,999.17